Time;durP1;ratioP1;P1;durP2;ratioP2;P2;SDS_P1;SDS_P2;PMS_P1;PMS_P2;Temp;Humidity;BMP_temperature;BMP_pressure;BME280_temperature;BME280_humidity;BME280_pressure;Samples;Min_cycle;Max_cycle;Signal;HPM_P1;HPM_P2
2023/05/14 00:01:21;;;;;;;42.67;26.27;;;18.80;87.70;;;;;;7386979;19;20398;-76
2023/05/14 00:03:50;;;;;;;45.00;23.67;;;18.80;87.60;;;;;;7410413;19;20011;-76
2023/05/14 00:06:19;;;;;;;46.17;26.05;;;18.70;87.50;;;;;;7384189;19;20003;-75
2023/05/14 00:08:47;;;;;;;50.33;25.17;;;18.70;87.50;;;;;;7386327;19;20081;-76
2023/05/14 00:11:16;;;;;;;41.78;25.98;;;18.60;87.70;;;;;;7386296;19;20003;-76
2023/05/14 00:13:45;;;;;;;45.63;26.00;;;18.50;87.80;;;;;;7387380;19;20011;-76
2023/05/14 00:16:16;;;;;;;41.35;26.38;;;18.50;88.20;;;;;;7385656;19;20395;-75
2023/05/14 00:18:45;;;;;;;50.88;27.70;;;18.40;88.10;;;;;;7407623;19;20011;-76
2023/05/14 00:21:13;;;;;;;52.42;27.90;;;18.30;88.30;;;;;;7385120;19;20087;-76
2023/05/14 00:23:42;;;;;;;47.88;28.20;;;18.20;88.70;;;;;;7384622;19;20011;-76
2023/05/14 00:26:11;;;;;;;52.30;28.40;;;18.10;89.10;;;;;;7385147;19;19999;-76
2023/05/14 00:28:39;;;;;;;44.25;27.20;;;18.10;89.10;;;;;;7384138;19;19999;-76
2023/05/14 00:31:08;;;;;;;50.13;27.70;;;18.10;88.90;;;;;;7398110;19;20011;-76
2023/05/14 00:33:39;;;;;;;55.85;29.00;;;18.00;88.80;;;;;;7407674;19;20014;-76
2023/05/14 00:36:09;;;;;;;45.53;27.35;;;18.00;88.80;;;;;;7386185;19;20024;-76
2023/05/14 00:38:38;;;;;;;52.78;26.92;;;17.90;88.80;;;;;;7386088;19;20103;-76
2023/05/14 00:41:07;;;;;;;53.88;28.10;;;17.80;88.80;;;;;;7386270;19;20012;-75
2023/05/14 00:43:35;;;;;;;53.45;28.67;;;17.80;88.80;;;;;;7390093;19;20003;-75
2023/05/14 00:46:04;;;;;;;47.80;27.60;;;17.70;89.00;;;;;;7409822;19;20010;-76
2023/05/14 00:48:33;;;;;;;48.45;29.48;;;17.80;89.00;;;;;;7384799;19;20007;-76
2023/05/14 00:51:05;;;;;;;48.78;28.63;;;17.60;89.00;;;;;;7384895;19;20015;-76
2023/05/14 00:53:34;;;;;;;;;;;17.70;89.10;;;;;;7385663;19;20011;-75
2023/05/14 00:56:02;;;;;;;49.30;27.95;;;17.40;89.10;;;;;;7383362;19;19915;-76
2023/05/14 00:58:31;;;;;;;47.72;26.40;;;17.30;89.40;;;;;;7382524;19;20019;-75
2023/05/14 01:01:01;;;;;;;47.95;27.33;;;17.30;90.00;;;;;;7411418;19;20015;-75
2023/05/14 01:03:31;;;;;;;53.22;26.67;;;17.30;89.80;;;;;;7383972;19;20346;-76
2023/05/14 01:06:11;;;;;;;47.90;26.02;;;17.40;89.50;;;;;;7383794;19;20007;-76
2023/05/14 01:08:53;;;;;;;45.72;28.88;;;17.40;89.20;;;;;;7384690;19;20007;-74
2023/05/14 01:11:25;;;;;;;46.58;27.00;;;17.50;89.20;;;;;;7383905;19;20058;-75
2023/05/14 01:14:03;;;;;;;41.67;25.80;;;17.50;88.90;;;;;;7384564;19;20002;-75
2023/05/14 01:16:34;;;;;;;43.05;26.73;;;17.50;89.00;;;;;;7385546;19;20007;-75
2023/05/14 01:19:06;;;;;;;44.33;26.80;;;17.50;88.90;;;;;;7405830;19;20003;-75
2023/05/14 01:21:39;;;;;;;48.30;27.33;;;17.30;88.70;;;;;;7383526;19;20385;-76
2023/05/14 01:24:09;;;;;;;53.83;28.08;;;17.40;88.80;;;;;;7382192;19;20009;-75
2023/05/14 01:26:38;;;;;;;52.13;28.15;;;17.30;88.70;;;;;;7382824;19;20362;-75
2023/05/14 01:29:15;;;;;;;40.85;25.63;;;17.30;89.20;;;;;;7383816;19;20018;-76
2023/05/14 01:31:45;;;;;;;44.97;26.38;;;17.30;88.90;;;;;;7383532;19;20365;-75
2023/05/14 01:34:15;;;;;;;50.07;27.80;;;17.30;88.80;;;;;;7383559;19;20010;-75
2023/05/14 01:36:48;;;;;;;50.97;27.60;;;17.30;88.60;;;;;;7404858;19;20011;-76
2023/05/14 01:39:17;;;;;;;52.20;30.02;;;17.00;88.90;;;;;;7382855;19;19999;-75
2023/05/14 01:41:47;;;;;;;53.60;29.65;;;16.80;89.40;;;;;;7383899;19;20282;-75
2023/05/14 01:44:16;;;;;;;56.35;29.52;;;16.90;89.80;;;;;;7383407;19;20027;-76
2023/05/14 01:46:45;;;;;;;51.90;30.15;;;16.70;90.00;;;;;;7381277;19;20074;-75
2023/05/14 01:49:14;;;;;;;49.60;29.30;;;16.80;90.00;;;;;;7383222;19;20035;-75
2023/05/14 01:51:43;;;;;;;52.53;28.90;;;16.60;90.00;;;;;;7404570;19;20014;-76
2023/05/14 01:54:17;;;;;;;51.15;31.10;;;16.70;90.00;;;;;;7382228;19;20007;-77
2023/05/14 01:56:46;;;;;;;53.42;30.23;;;16.60;90.10;;;;;;7383565;19;20007;-76
2023/05/14 01:59:15;;;;;;;49.25;30.85;;;16.70;90.00;;;;;;7382801;19;20112;-75
2023/05/14 02:01:44;;;;;;;62.95;31.42;;;16.70;89.70;;;;;;7382395;19;20357;-75
2023/05/14 02:04:12;;;;;;;59.70;33.03;;;16.60;89.80;;;;;;7380459;19;20394;-74
2023/05/14 02:06:41;;;;;;;49.60;31.83;;;16.60;90.00;;;;;;7402360;19;20015;-75
2023/05/14 02:09:10;;;;;;;57.90;30.50;;;16.50;90.00;;;;;;7381325;19;20002;-76
2023/05/14 02:11:43;;;;;;;60.92;31.60;;;16.70;90.10;;;;;;7381991;19;20006;-76
2023/05/14 02:14:14;;;;;;;53.17;30.67;;;16.80;89.90;;;;;;7381561;19;20003;-75
2023/05/14 02:16:43;;;;;;;61.28;30.88;;;16.80;89.70;;;;;;7383008;19;19998;-76
2023/05/14 02:19:11;;;;;;;54.10;32.80;;;16.90;89.70;;;;;;7382575;19;20108;-76
2023/05/14 02:21:40;;;;;;;51.83;29.90;;;16.80;89.40;;;;;;7403470;19;20023;-75
2023/05/14 02:24:09;;;;;;;56.20;30.02;;;16.90;89.50;;;;;;7380184;19;20011;-75
2023/05/14 02:26:37;;;;;;;54.63;30.67;;;16.90;89.40;;;;;;7380507;19;20011;-75
2023/05/14 02:29:09;;;;;;;59.58;31.45;;;16.70;89.70;;;;;;7382727;19;20019;-76
2023/05/14 02:31:38;;;;;;;51.53;30.25;;;16.90;89.70;;;;;;7382235;19;20084;-75
2023/05/14 02:34:08;;;;;;;57.70;31.60;;;17.00;89.30;;;;;;7404819;19;20011;-75
2023/05/14 02:36:36;;;;;;;57.95;32.67;;;17.00;88.80;;;;;;7381940;19;20003;-75
2023/05/14 02:39:05;;;;;;;53.15;31.40;;;16.90;88.80;;;;;;7381666;19;20010;-75
2023/05/14 02:41:34;;;;;;;63.03;34.65;;;16.90;89.10;;;;;;7381264;19;20291;-75
2023/05/14 02:44:03;;;;;;;63.47;34.03;;;16.80;89.40;;;;;;7381476;19;20006;-76
2023/05/14 02:46:35;;;;;;;57.90;32.42;;;16.90;89.50;;;;;;7381486;19;19999;-75
2023/05/14 02:49:04;;;;;;;55.00;33.38;;;16.90;89.30;;;;;;7403459;19;20009;-75
2023/05/14 02:51:33;;;;;;;63.35;34.38;;;16.90;89.10;;;;;;7381026;19;20010;-76
2023/05/14 02:54:01;;;;;;;54.67;32.03;;;16.90;89.20;;;;;;7380787;19;20015;-75
2023/05/14 02:56:30;;;;;;;63.55;34.80;;;16.90;89.40;;;;;;7381151;19;20295;-75
2023/05/14 02:58:59;;;;;;;58.88;35.35;;;16.90;89.10;;;;;;7381336;19;20011;-75
2023/05/14 03:01:27;;;;;;;58.63;34.10;;;17.00;89.10;;;;;;7380969;19;20010;-75
2023/05/14 03:03:59;;;;;;;63.65;35.22;;;17.00;89.10;;;;;;7402225;19;20011;-76
2023/05/14 03:06:27;;;;;;;57.75;33.58;;;17.00;88.90;;;;;;7379105;19;20078;-74
2023/05/14 03:08:56;;;;;;;61.42;35.05;;;16.70;89.10;;;;;;7380348;19;19999;-74
2023/05/14 03:11:25;;;;;;;63.25;35.63;;;16.70;89.70;;;;;;7380625;19;20078;-74
2023/05/14 03:13:54;;;;;;;63.90;34.30;;;16.80;89.60;;;;;;7380334;19;20044;-75
2023/05/14 03:16:22;;;;;;;58.42;33.33;;;16.90;89.10;;;;;;7380547;19;20007;-75
2023/05/14 03:18:51;;;;;;;60.75;34.58;;;16.90;89.20;;;;;;7402442;19;20023;-75
2023/05/14 03:21:22;;;;;;;61.75;34.40;;;16.90;89.20;;;;;;7381394;19;20007;-75
2023/05/14 03:23:51;;;;;;;59.47;33.60;;;16.90;89.10;;;;;;7386245;19;20027;-75
2023/05/14 03:26:20;;;;;;;64.68;34.55;;;17.00;89.40;;;;;;7387345;19;20290;-75
2023/05/14 03:28:49;;;;;;;59.95;35.42;;;17.00;88.80;;;;;;7387756;19;20016;-75
2023/05/14 03:31:17;;;;;;;58.55;34.00;;;16.90;89.10;;;;;;7388210;19;20023;-75
2023/05/14 03:33:46;;;;;;;62.13;34.75;;;17.00;89.00;;;;;;7409095;19;20017;-75
2023/05/14 03:36:15;;;;;;;58.40;34.50;;;17.00;89.10;;;;;;7387469;19;20024;-75
2023/05/14 03:38:46;;;;;;;60.28;35.15;;;17.10;88.80;;;;;;7388374;19;20299;-75
2023/05/14 03:41:16;;;;;;;58.08;34.97;;;16.90;88.70;;;;;;7386512;19;20010;-75
2023/05/14 03:43:45;;;;;;;69.47;36.28;;;16.80;88.90;;;;;;7385266;19;20006;-74
2023/05/14 03:46:14;;;;;;;64.82;36.80;;;16.70;89.40;;;;;;7384359;19;20276;-75
2023/05/14 03:48:42;;;;;;;63.95;35.78;;;16.70;89.30;;;;;;7407977;19;20090;-75
2023/05/14 03:51:11;;;;;;;62.20;35.15;;;16.70;89.50;;;;;;7386351;19;20003;-75
2023/05/14 03:53:40;;;;;;;67.47;38.50;;;16.70;89.70;;;;;;7386865;19;20019;-75
2023/05/14 03:56:11;;;;;;;62.55;34.88;;;16.40;90.00;;;;;;7386917;19;20015;-75
2023/05/14 03:58:40;;;;;;;60.83;36.45;;;16.30;90.40;;;;;;7387091;19;20003;-74
2023/05/14 04:01:08;;;;;;;58.75;34.75;;;16.20;90.40;;;;;;7400544;19;20117;-74
2023/05/14 04:03:37;;;;;;;71.30;38.53;;;16.30;90.30;;;;;;7407860;19;20240;-74
2023/05/14 04:06:06;;;;;;;72.65;37.60;;;16.30;90.30;;;;;;7385036;19;20022;-75
2023/05/14 04:08:35;;;;;;;68.15;36.75;;;16.30;90.30;;;;;;7386402;19;20015;-75
2023/05/14 04:11:06;;;;;;;61.65;36.25;;;16.50;90.20;;;;;;7386373;19;20019;-75
2023/05/14 04:13:37;;;;;;;66.95;35.78;;;16.60;90.20;;;;;;7384402;19;20027;-75
2023/05/14 04:16:07;;;;;;;63.38;35.92;;;16.60;90.10;;;;;;7408720;19;20238;-75
2023/05/14 04:18:35;;;;;;;62.08;34.75;;;16.70;90.00;;;;;;7385755;19;20393;-75
2023/05/14 04:21:04;;;;;;;66.85;36.83;;;16.90;89.70;;;;;;7385477;19;20013;-75
2023/05/14 04:23:33;;;;;;;66.28;36.70;;;16.90;89.20;;;;;;7385080;19;20066;-74
2023/05/14 04:26:02;;;;;;;62.40;35.45;;;16.70;89.00;;;;;;7385799;19;20007;-76
2023/05/14 04:28:30;;;;;;;63.70;35.65;;;16.80;90.00;;;;;;7386731;19;20039;-75
2023/05/14 04:31:02;;;;;;;61.92;34.90;;;16.80;89.40;;;;;;7407317;19;20015;-76
2023/05/14 04:33:31;;;;;;;64.03;34.63;;;16.90;89.20;;;;;;7385126;19;20014;-75
2023/05/14 04:36:00;;;;;;;63.47;34.42;;;17.00;90.00;;;;;;7385014;19;20002;-75
2023/05/14 04:38:29;;;;;;;66.38;34.40;;;16.90;88.90;;;;;;7385503;19;20042;-75
2023/05/14 04:40:57;;;;;;;65.07;36.95;;;17.00;88.70;;;;;;7385381;19;20310;-75
2023/05/14 04:43:26;;;;;;;67.28;37.00;;;17.00;88.30;;;;;;7385449;19;20010;-76
2023/05/14 04:45:55;;;;;;;73.82;38.00;;;16.90;88.30;;;;;;7406736;19;20023;-76
2023/05/14 04:48:26;;;;;;;69.18;38.50;;;16.70;88.50;;;;;;7386517;19;20019;-75
2023/05/14 04:50:55;;;;;;;73.85;36.75;;;16.60;88.90;;;;;;7384575;19;20007;-74
2023/05/14 04:53:24;;;;;;;69.55;37.72;;;16.60;89.50;;;;;;7385577;19;20019;-75
2023/05/14 04:55:52;;;;;;;69.05;37.67;;;16.50;89.50;;;;;;7385200;19;19998;-76
2023/05/14 04:58:22;;;;;;;64.60;36.67;;;16.60;89.90;;;;;;7382351;19;20268;-75
2023/05/14 05:00:51;;;;;;;70.30;37.15;;;16.70;89.70;;;;;;7406534;19;20007;-75
2023/05/14 05:03:20;;;;;;;68.88;37.08;;;16.70;89.40;;;;;;7383751;19;20012;-74
2023/05/14 05:05:51;;;;;;;69.97;35.83;;;16.70;89.20;;;;;;7384335;19;20046;-75
2023/05/14 05:08:20;;;;;;;68.70;37.10;;;16.70;89.30;;;;;;7383839;19;20020;-75
2023/05/14 05:10:49;;;;;;;74.47;37.55;;;16.40;90.00;;;;;;7383351;19;20006;-75
2023/05/14 05:13:17;;;;;;;69.28;36.95;;;16.40;90.20;;;;;;7384083;19;20011;-75
2023/05/14 05:15:46;;;;;;;67.28;36.70;;;16.50;90.20;;;;;;7405787;19;20003;-75
2023/05/14 05:18:15;;;;;;;71.03;35.92;;;16.50;90.10;;;;;;7383113;19;20011;-75
2023/05/14 05:20:43;;;;;;;73.32;37.78;;;16.60;90.10;;;;;;7383820;19;20011;-74
2023/05/14 05:23:15;;;;;;;70.57;35.00;;;16.60;90.10;;;;;;7382315;19;20011;-75
2023/05/14 05:25:43;;;;;;;72.43;38.85;;;16.70;90.10;;;;;;7383880;19;20007;-75
2023/05/14 05:28:12;;;;;;;65.50;36.53;;;16.60;89.70;;;;;;7381832;19;20056;-75
2023/05/14 05:30:43;;;;;;;65.63;36.50;;;16.70;90.00;;;;;;7405372;19;20037;-75
2023/05/14 05:33:12;;;;;;;81.90;37.70;;;16.70;90.00;;;;;;7382687;19;20066;-74
2023/05/14 05:35:42;;;;;;;69.43;35.50;;;16.70;89.80;;;;;;7383290;19;20351;-74
2023/05/14 05:38:10;;;;;;;72.72;36.75;;;16.70;90.00;;;;;;7384033;19;20346;-74
2023/05/14 05:40:42;;;;;;;61.33;35.33;;;16.60;90.00;;;;;;7383545;19;20062;-74
2023/05/14 05:43:12;;;;;;;69.32;37.33;;;16.70;90.00;;;;;;7383097;19;20058;-74
2023/05/14 05:45:41;;;;;;;64.90;34.07;;;16.70;90.00;;;;;;7403199;19;20023;-74
2023/05/14 05:48:10;;;;;;;63.97;35.22;;;16.70;90.10;;;;;;7381980;19;20567;-74
2023/05/14 05:50:38;;;;;;;63.75;35.22;;;16.70;90.00;;;;;;7382015;19;20011;-75
2023/05/14 05:53:07;;;;;;;63.38;35.60;;;16.70;90.00;;;;;;7383124;19;20066;-75
2023/05/14 05:55:36;;;;;;;63.42;36.45;;;16.70;90.10;;;;;;7382679;19;20015;-75
2023/05/14 05:58:07;;;;;;;68.78;36.38;;;16.60;90.20;;;;;;7404298;19;20015;-75
2023/05/14 06:00:36;;;;;;;70.20;36.38;;;16.60;90.20;;;;;;7382650;19;20373;-75
2023/05/14 06:03:05;;;;;;;68.57;38.13;;;16.70;90.20;;;;;;7382575;19;20002;-75
2023/05/14 06:05:33;;;;;;;67.85;35.60;;;16.70;90.20;;;;;;7382333;19;20019;-76
2023/05/14 06:08:02;;;;;;;70.82;37.95;;;16.80;90.10;;;;;;7382978;19;20062;-75
2023/05/14 06:10:31;;;;;;;69.38;36.22;;;16.70;90.10;;;;;;7383152;19;20011;-76
2023/05/14 06:13:02;;;;;;;74.80;38.42;;;16.60;90.20;;;;;;7404221;19;20403;-75
2023/05/14 06:15:33;;;;;;;71.53;36.20;;;16.70;90.20;;;;;;7383344;19;20007;-75
2023/05/14 06:18:02;;;;;;;82.78;39.22;;;16.70;90.30;;;;;;7384179;19;20062;-75
2023/05/14 06:20:31;;;;;;;70.75;38.20;;;16.70;90.10;;;;;;7385625;19;20003;-75
2023/05/14 06:23:00;;;;;;;75.80;40.78;;;16.60;90.20;;;;;;7384753;19;20002;-75
2023/05/14 06:25:29;;;;;;;74.78;40.15;;;16.50;90.40;;;;;;7387047;19;20023;-75
2023/05/14 06:27:57;;;;;;;89.40;40.35;;;16.40;90.50;;;;;;7415744;19;20024;-75
2023/05/14 06:30:26;;;;;;;88.28;40.78;;;16.40;90.60;;;;;;7386446;19;20271;-75
2023/05/14 06:32:57;;;;;;;73.35;37.85;;;16.50;90.60;;;;;;7381204;19;20007;-75
2023/05/14 06:35:26;;;;;;;79.47;40.25;;;16.60;90.70;;;;;;7382555;19;20275;-75
2023/05/14 06:37:55;;;;;;;81.93;41.13;;;16.70;90.50;;;;;;7382228;19;20002;-75
2023/05/14 06:40:23;;;;;;;86.60;41.33;;;16.60;90.30;;;;;;7382466;19;20030;-75
2023/05/14 06:42:52;;;;;;;90.43;46.95;;;16.70;90.50;;;;;;7403111;19;20034;-75
2023/05/14 06:45:21;;;;;;;97.07;45.20;;;16.60;90.40;;;;;;7384540;19;20003;-76
2023/05/14 06:47:50;;;;;;;88.95;44.53;;;16.70;90.40;;;;;;7381508;19;20390;-75
2023/05/14 06:50:21;;;;;;;100.50;46.17;;;16.60;90.20;;;;;;7381462;19;20062;-75
2023/05/14 06:52:50;;;;;;;94.57;45.75;;;16.60;90.20;;;;;;7382254;19;20015;-74
2023/05/14 06:55:19;;;;;;;87.95;43.58;;;16.30;90.50;;;;;;7379846;19;20031;-75
2023/05/14 06:57:47;;;;;;;98.85;47.47;;;16.20;90.70;;;;;;7401982;19;20011;-75
2023/05/14 07:00:18;;;;;;;95.43;46.80;;;16.20;90.80;;;;;;7381247;19;20002;-75
2023/05/14 07:02:46;;;;;;;100.00;46.13;;;16.30;91.00;;;;;;7383104;19;20425;-75
2023/05/14 07:05:15;;;;;;;96.68;44.63;;;16.40;90.90;;;;;;7390128;19;20013;-75
2023/05/14 07:07:46;;;;;;;95.10;45.33;;;16.40;91.50;;;;;;7390581;19;20530;-75
2023/05/14 07:10:15;;;;;;;102.40;47.38;;;16.40;91.20;;;;;;7389772;19;20015;-75
2023/05/14 07:12:44;;;;;;;104.10;44.28;;;16.40;91.00;;;;;;7411312;19;20024;-73
2023/05/14 07:15:13;;;;;;;101.55;46.95;;;16.30;91.10;;;;;;7390234;19;20026;-75
2023/05/14 07:17:42;;;;;;;99.07;46.25;;;16.30;90.80;;;;;;7386957;19;20082;-75
2023/05/14 07:20:13;;;;;;;99.70;45.45;;;16.00;91.00;;;;;;7390948;19;19999;-75
2023/05/14 07:22:42;;;;;;;91.78;43.83;;;15.60;91.30;;;;;;7384496;19;20027;-75
2023/05/14 07:25:13;;;;;;;95.82;41.88;;;15.70;91.50;;;;;;7379273;19;20007;-76
2023/05/14 07:27:42;;;;;;;89.28;41.67;;;15.80;91.50;;;;;;7400917;19;20359;-75
2023/05/14 07:30:12;;;;;;;89.18;39.53;;;15.90;91.30;;;;;;7380562;19;20015;-75
2023/05/14 07:32:40;;;;;;;81.63;40.38;;;15.80;91.10;;;;;;7381480;19;20028;-75
2023/05/14 07:35:10;;;;;;;85.68;41.15;;;15.60;91.50;;;;;;7382891;19;20287;-75
2023/05/14 07:37:39;;;;;;;82.32;38.90;;;15.70;91.60;;;;;;7382797;19;20003;-75
2023/05/14 07:40:09;;;;;;;82.50;40.70;;;15.80;91.50;;;;;;7409636;19;20028;-75
2023/05/14 07:42:41;;;;;;;87.47;42.15;;;15.80;91.30;;;;;;7401427;19;19999;-75
2023/05/14 07:45:11;;;;;;;85.30;42.05;;;15.80;91.40;;;;;;7380370;19;20006;-76
2023/05/14 07:47:41;;;;;;;83.78;42.15;;;15.50;91.60;;;;;;7378558;19;20006;-76
2023/05/14 07:50:11;;;;;;;86.80;41.25;;;15.70;91.70;;;;;;7379527;19;20002;-75
2023/05/14 07:52:40;;;;;;;83.18;40.50;;;15.80;91.80;;;;;;7380147;19;20011;-75
2023/05/14 07:55:10;;;;;;;73.82;36.50;;;15.50;92.10;;;;;;7395131;19;20015;-76
2023/05/14 07:57:42;;;;;;;69.18;35.20;;;15.40;91.80;;;;;;7402680;19;20018;-75
2023/05/14 08:00:11;;;;;;;71.28;36.03;;;15.40;91.80;;;;;;7380555;19;20308;-75
2023/05/14 08:02:41;;;;;;;78.32;37.15;;;15.60;91.70;;;;;;7380737;19;20366;-75
2023/05/14 08:05:10;;;;;;;78.25;39.50;;;15.70;91.50;;;;;;7379623;19;19999;-75
2023/05/14 08:07:40;;;;;;;79.75;38.20;;;15.40;91.70;;;;;;7383718;19;20405;-75
2023/05/14 08:10:10;;;;;;;77.47;37.85;;;15.70;92.10;;;;;;7403254;19;20023;-75
2023/05/14 08:12:43;;;;;;;80.60;39.17;;;15.70;91.70;;;;;;7410062;19;20365;-75
2023/05/14 08:15:12;;;;;;;80.25;39.00;;;15.60;91.50;;;;;;7388056;19;20011;-75
2023/05/14 08:17:41;;;;;;;80.47;37.42;;;15.70;91.50;;;;;;7388564;19;20252;-75
2023/05/14 08:20:11;;;;;;;70.53;35.83;;;15.80;91.40;;;;;;7387081;19;20003;-75
2023/05/14 08:22:40;;;;;;;76.60;37.25;;;15.60;91.30;;;;;;7387277;19;20264;-75
2023/05/14 08:25:09;;;;;;;73.72;35.55;;;15.90;91.30;;;;;;7399996;19;20010;-75
2023/05/14 08:27:38;;;;;;;73.40;36.22;;;15.90;91.00;;;;;;7406057;19;20010;-75
2023/05/14 08:30:10;;;;;;;73.22;35.25;;;16.00;91.00;;;;;;7385812;19;20019;-75
2023/05/14 08:32:41;;;;;;;65.47;33.85;;;16.10;91.00;;;;;;7387369;19;20078;-76
2023/05/14 08:35:14;;;;;;;75.43;37.03;;;16.30;90.90;;;;;;7387160;19;20011;-74
2023/05/14 08:37:43;;;;;;;72.85;33.92;;;16.40;90.50;;;;;;7386770;19;20006;-78
2023/05/14 08:40:13;;;;;;;66.43;33.85;;;16.40;90.30;;;;;;7384678;19;20017;-75
2023/05/14 08:42:43;;;;;;;68.03;35.63;;;16.40;90.10;;;;;;7407603;19;20359;-75
2023/05/14 08:45:20;;;;;;;64.80;35.23;;;16.20;90.50;;;;;;7386224;19;20002;-75
2023/05/14 08:47:51;;;;;;;69.20;34.00;;;16.10;90.50;;;;;;7385869;19;20003;-75
2023/05/14 08:50:21;;;;;;;78.53;36.93;;;16.10;90.60;;;;;;7386173;19;20070;-75
2023/05/14 08:52:50;;;;;;;72.95;36.90;;;16.10;90.70;;;;;;7384955;19;20003;-75
2023/05/14 08:55:21;;;;;;;66.68;35.53;;;16.00;90.70;;;;;;7386812;19;20010;-75
2023/05/14 08:57:50;;;;;;;79.00;37.20;;;16.10;90.90;;;;;;7405203;19;20006;-75
2023/05/14 09:00:21;;;;;;;88.60;39.03;;;16.00;90.90;;;;;;7385514;19;20016;-75
2023/05/14 09:02:50;;;;;;;67.63;36.63;;;15.70;91.10;;;;;;7385702;19;20003;-75
2023/05/14 09:05:20;;;;;;;73.60;37.05;;;15.90;91.30;;;;;;7385738;19;20014;-75
2023/05/14 09:07:49;;;;;;;77.18;36.58;;;15.90;91.10;;;;;;7384590;19;20007;-75
2023/05/14 09:10:19;;;;;;;74.63;36.45;;;15.70;91.30;;;;;;7384199;19;20227;-75
2023/05/14 09:12:48;;;;;;;75.03;36.97;;;15.80;91.40;;;;;;7408450;19;20058;-75
2023/05/14 09:15:17;;;;;;;77.28;35.38;;;15.70;91.60;;;;;;7385955;19;20006;-76
2023/05/14 09:17:49;;;;;;;79.15;37.15;;;15.70;91.40;;;;;;7386497;19;20010;-75
2023/05/14 09:20:18;;;;;;;79.22;39.50;;;15.80;91.50;;;;;;7386071;19;20006;-75
2023/05/14 09:22:47;;;;;;;74.95;36.03;;;16.00;91.40;;;;;;7394380;19;20015;-76
2023/05/14 09:25:18;;;;;;;72.78;35.72;;;16.10;91.20;;;;;;7401199;19;20014;-75
2023/05/14 09:27:50;;;;;;;64.53;31.92;;;16.30;91.00;;;;;;7405939;19;20006;-75
2023/05/14 09:30:20;;;;;;;59.25;30.70;;;16.30;90.70;;;;;;7385193;19;20015;-75
2023/05/14 09:32:54;;;;;;;61.65;30.48;;;16.40;90.30;;;;;;7386049;19;20381;-75
2023/05/14 09:35:25;;;;;;;60.90;30.67;;;16.50;90.10;;;;;;7384455;19;20011;-76
2023/05/14 09:37:55;;;;;;;58.53;29.33;;;16.60;90.00;;;;;;7384677;19;20010;-76
2023/05/14 09:40:26;;;;;;;64.63;31.30;;;16.70;89.60;;;;;;7382694;19;20014;-75
2023/05/14 09:42:55;;;;;;;64.65;32.97;;;17.00;89.80;;;;;;7404466;19;20224;-75
2023/05/14 09:45:23;;;;;;;64.43;33.42;;;17.00;88.50;;;;;;7384487;19;20015;-76
2023/05/14 09:47:55;;;;;;;60.78;31.38;;;16.90;88.50;;;;;;7384285;19;20003;-76
2023/05/14 09:50:25;;;;;;;66.00;31.35;;;17.10;88.90;;;;;;7384273;19;20016;-76
2023/05/14 09:52:56;;;;;;;58.80;31.40;;;17.00;88.90;;;;;;7383467;19;19998;-76
2023/05/14 09:55:25;;;;;;;63.78;32.28;;;17.10;89.00;;;;;;7385704;19;20023;-76
2023/05/14 09:57:54;;;;;;;99.97;34.03;;;17.20;89.60;;;;;;7406285;19;20039;-76
2023/05/14 10:00:23;;;;;;;63.53;33.97;;;17.20;89.80;;;;;;7383158;19;20006;-76
2023/05/14 10:02:56;;;;;;;71.35;34.00;;;17.30;90.20;;;;;;7383319;19;20357;-76
2023/05/14 10:05:25;;;;;;;75.35;33.63;;;16.90;89.50;;;;;;7384365;19;20011;-75
2023/05/14 10:07:58;;;;;;;64.38;33.00;;;17.00;89.80;;;;;;7382950;19;20249;-75
2023/05/14 10:10:30;;;;;;;57.50;31.17;;;17.10;89.20;;;;;;7384517;19;20011;-75
2023/05/14 10:13:04;;;;;;;61.85;30.75;;;17.00;89.70;;;;;;7405987;19;20016;-75
2023/05/14 10:15:39;;;;;;;56.00;30.65;;;17.00;89.20;;;;;;7383571;19;20010;-75
2023/05/14 10:18:13;;;;;;;52.58;30.08;;;16.80;89.40;;;;;;7383312;19;20046;-75
2023/05/14 10:20:43;;;;;;;52.03;29.02;;;16.90;89.10;;;;;;7384704;19;20030;-75
2023/05/14 10:23:12;;;;;;;53.97;28.10;;;16.90;89.70;;;;;;7382840;19;20393;-75
2023/05/14 10:25:42;;;;;;;47.00;27.15;;;16.70;89.10;;;;;;7386439;19;20248;-76
2023/05/14 10:28:11;;;;;;;48.30;26.25;;;16.90;88.90;;;;;;7384153;19;20014;-75
2023/05/14 10:30:45;;;;;;;44.10;26.48;;;17.00;89.10;;;;;;7408346;19;20260;-75
2023/05/14 10:33:17;;;;;;;41.65;25.15;;;17.20;88.60;;;;;;7381186;19;20011;-75
2023/05/14 10:35:59;;;;;;;47.72;25.48;;;17.30;88.20;;;;;;7381380;19;20007;-75
2023/05/14 10:38:29;;;;;;;49.60;26.48;;;17.50;88.30;;;;;;7381593;19;20023;-75
2023/05/14 10:41:00;;;;;;;45.67;26.75;;;17.50;87.50;;;;;;7384135;19;19999;-75
2023/05/14 10:43:29;;;;;;;;;;;17.70;87.40;;;;;;7386707;19;20023;-75
2023/05/14 10:45:59;;;;;;;46.60;26.27;;;17.90;87.40;;;;;;7405910;19;19907;-76
2023/05/14 10:48:31;;;;;;;48.58;26.88;;;17.90;87.20;;;;;;7381576;19;20006;-76
2023/05/14 10:51:00;;;;;;;46.13;25.20;;;17.90;86.70;;;;;;7381275;19;20548;-75
2023/05/14 10:53:36;;;;;;;42.88;25.90;;;18.00;86.80;;;;;;7381995;19;20005;-75
2023/05/14 10:56:07;;;;;;;45.08;25.58;;;17.90;85.30;;;;;;7381854;19;20027;-75
2023/05/14 10:58:38;;;;;;;44.92;25.85;;;18.00;85.90;;;;;;7384154;19;20007;-75
2023/05/14 11:01:08;;;;;;;43.50;25.83;;;18.10;85.90;;;;;;7404050;19;20017;-75
2023/05/14 11:03:44;;;;;;;44.85;25.40;;;18.20;86.70;;;;;;7384689;19;20232;-75
2023/05/14 11:06:17;;;;;;;42.83;25.00;;;18.40;85.60;;;;;;7381835;19;20016;-75
2023/05/14 11:08:47;;;;;;;49.45;27.83;;;18.60;86.00;;;;;;7380975;19;19999;-75
2023/05/14 11:11:17;;;;;;;48.20;25.25;;;18.70;85.10;;;;;;7381413;19;20084;-75
2023/05/14 11:13:46;;;;;;;37.88;23.45;;;18.90;84.10;;;;;;7380437;19;20014;-75
2023/05/14 11:16:17;;;;;;;39.60;22.65;;;19.10;84.00;;;;;;7381839;19;20027;-75
2023/05/14 11:18:48;;;;;;;45.83;24.55;;;19.10;84.60;;;;;;7403412;19;20067;-75
2023/05/14 11:21:19;;;;;;;38.78;23.73;;;19.10;84.00;;;;;;7380147;19;20207;-75
2023/05/14 11:23:48;;;;;;;39.17;24.17;;;19.20;82.90;;;;;;7379752;19;20003;-75
2023/05/14 11:26:18;;;;;;;41.28;22.88;;;19.20;82.70;;;;;;7380775;19;20003;-75
2023/05/14 11:28:48;;;;;;;40.45;23.85;;;19.20;83.00;;;;;;7380476;19;20017;-75
2023/05/14 11:31:19;;;;;;;40.42;23.88;;;19.20;82.10;;;;;;7378529;19;20006;-75
2023/05/14 11:33:50;;;;;;;35.67;23.30;;;19.10;81.80;;;;;;7401135;19;20007;-76
2023/05/14 11:36:19;;;;;;;;;;;19.00;83.00;;;;;;7379977;19;20003;-76
2023/05/14 11:38:51;;;;;;;37.67;22.05;;;18.60;83.60;;;;;;7379510;19;19938;-76
2023/05/14 11:41:21;;;;;;;37.72;22.92;;;18.70;84.10;;;;;;7380309;19;20019;-76
2023/05/14 11:43:50;;;;;;;41.17;23.15;;;18.80;84.10;;;;;;7387145;19;20362;-75
2023/05/14 11:46:20;;;;;;;37.05;23.73;;;18.90;84.40;;;;;;7387426;19;20024;-75
2023/05/14 11:48:52;;;;;;;39.63;23.40;;;19.00;83.70;;;;;;7420969;19;20031;-76
2023/05/14 11:51:21;;;;;;;35.65;22.92;;;19.10;83.30;;;;;;7388797;19;20023;-75
2023/05/14 11:53:50;;;;;;;39.17;25.00;;;19.00;83.30;;;;;;7389576;19;20002;-75
2023/05/14 11:56:22;;;;;;;39.50;23.55;;;18.70;83.20;;;;;;7389744;19;20006;-75
2023/05/14 11:58:59;;;;;;;37.20;24.80;;;18.70;83.90;;;;;;7389262;19;19999;-76
2023/05/14 12:01:33;;;;;;;41.03;23.02;;;18.70;84.10;;;;;;7388089;19;20037;-76
2023/05/14 12:04:06;;;;;;;36.35;22.58;;;19.00;84.10;;;;;;7406963;19;20366;-77
2023/05/14 12:06:35;;;;;;;36.35;22.55;;;19.10;83.90;;;;;;7387109;19;20031;-76
2023/05/14 12:09:06;;;;;;;38.92;23.17;;;19.20;83.30;;;;;;7386727;19;20011;-76
2023/05/14 12:11:37;;;;;;;38.53;22.55;;;19.30;83.20;;;;;;7388426;19;20011;-75
2023/05/14 12:14:13;;;;;;;35.13;21.50;;;19.40;83.00;;;;;;7390164;19;20366;-76
2023/05/14 12:16:43;;;;;;;42.97;24.77;;;19.20;83.10;;;;;;7386297;19;20076;-76
2023/05/14 12:19:17;;;;;;;38.15;21.88;;;19.30;82.70;;;;;;7386642;19;20011;-76
2023/05/14 12:21:46;;;;;;;40.30;23.23;;;19.10;83.90;;;;;;7406389;19;20020;-76
2023/05/14 12:24:17;;;;;;;34.70;21.58;;;19.20;83.30;;;;;;7384074;19;20011;-76
2023/05/14 12:26:49;;;;;;;33.75;21.73;;;19.20;83.60;;;;;;7386276;19;20007;-76
2023/05/14 12:29:21;;;;;;;32.85;21.35;;;19.30;82.80;;;;;;7385937;19;20007;-75
2023/05/14 12:31:51;;;;;;;31.63;20.92;;;19.50;83.40;;;;;;7385262;19;20003;-76
2023/05/14 12:34:23;;;;;;;36.30;22.10;;;19.50;83.00;;;;;;7383790;19;20013;-76
2023/05/14 12:36:51;;;;;;;;;;;19.60;82.20;;;;;;7411026;19;20006;-76
2023/05/14 12:39:20;;;;;;;31.10;20.25;;;19.80;82.10;;;;;;7385470;19;19934;-76
2023/05/14 12:41:51;;;;;;;54.53;20.83;;;19.80;81.70;;;;;;7385768;19;20013;-76